Wetterdaten: Woche 31.07.17 - 06.08.17 (KW31)
Datum Zeit Temp. A. Feuchte A. Luftdruck Regen Wind Richtung Taupunkt Windchill Windben
31.07.2017 00:00 17,8 C 90 % 1012,3 hPa 0,0 l/m 0,1 km/h (0 Bft) NO 16,2 C 17,8 C 1,3 km/h (1 Bft)
31.07.2017 01:00 17,2 C 91 % 1012,5 hPa 0,0 l/m 0,4 km/h (0 Bft) O-NO 15,7 C 17,2 C 2,7 km/h (1 Bft)
31.07.2017 02:00 16,7 C 90 % 1012,8 hPa 0,0 l/m 0,5 km/h (0 Bft) NO 15,1 C 16,7 C 2,7 km/h (1 Bft)
31.07.2017 03:00 16,1 C 90 % 1013,0 hPa 0,0 l/m 0,3 km/h (0 Bft) NO 14,5 C 16,1 C 1,7 km/h (1 Bft)
31.07.2017 04:00 15,3 C 92 % 1012,8 hPa 0,0 l/m 0,1 km/h (0 Bft) O 13,9 C 15,3 C 1,1 km/h (0 Bft)
31.07.2017 05:00 14,2 C 93 % 1013,1 hPa 0,0 l/m 0,0 km/h (0 Bft) O 13,1 C 14,2 C 0,3 km/h (0 Bft)
31.07.2017 06:00 13,4 C 95 % 1013,2 hPa 0,0 l/m 0,1 km/h (0 Bft) O 12,6 C 13,4 C 0,8 km/h (0 Bft)
31.07.2017 07:00 14,8 C 96 % 1013,9 hPa 0,0 l/m 0,3 km/h (0 Bft) O-NO 14,2 C 14,8 C 2,1 km/h (1 Bft)
31.07.2017 08:00 17,4 C 90 % 1014,1 hPa 0,0 l/m 0,3 km/h (0 Bft) O-NO 15,7 C 17,4 C 2,0 km/h (1 Bft)
31.07.2017 09:00 20,7 C 80 % 1013,9 hPa 0,0 l/m 0,8 km/h (0 Bft) O-NO 17,1 C 20,7 C 3,1 km/h (1 Bft)
31.07.2017 10:00 23,0 C 71 % 1013,7 hPa 0,0 l/m 1,2 km/h (1 Bft) NO 17,4 C 23,0 C 3,6 km/h (1 Bft)
31.07.2017 11:00 24,1 C 66 % 1013,7 hPa 0,0 l/m 3,8 km/h (1 Bft) N 17,5 C 24,1 C 8,7 km/h (2 Bft)
31.07.2017 12:00 24,8 C 62 % 1013,6 hPa 0,0 l/m 4,9 km/h (1 Bft) O 16,9 C 24,7 C 12,2 km/h (2 Bft)
31.07.2017 13:00 27,3 C 52 % 1013,6 hPa 0,0 l/m 4,1 km/h (1 Bft) O-NO 16,5 C 27,2 C 11,3 km/h (2 Bft)
31.07.2017 14:00 27,8 C 47 % 1013,8 hPa 0,0 l/m 4,5 km/h (1 Bft) O-NO 15,4 C 27,8 C 11,7 km/h (2 Bft)
31.07.2017 15:00 27,1 C 50 % 1013,4 hPa 0,0 l/m 1,4 km/h (1 Bft) O 15,6 C 27,1 C 4,8 km/h (1 Bft)
31.07.2017 16:00 27,2 C 51 % 1012,9 hPa 0,0 l/m 0,7 km/h (0 Bft) O-SO 16,0 C 27,2 C 2,8 km/h (1 Bft)
31.07.2017 17:00 27,9 C 47 % 1012,4 hPa 0,0 l/m 1,1 km/h (0 Bft) S 15,7 C 27,9 C 3,3 km/h (1 Bft)
31.07.2017 18:00 27,5 C 51 % 1011,8 hPa 0,0 l/m 1,5 km/h (1 Bft) W 16,5 C 27,5 C 4,8 km/h (1 Bft)
31.07.2017 19:00 26,9 C 56 % 1011,6 hPa 0,0 l/m 1,0 km/h (0 Bft) SW 17,3 C 26,9 C 3,9 km/h (1 Bft)
31.07.2017 20:00 24,6 C 67 % 1011,6 hPa 0,0 l/m 0,1 km/h (0 Bft) N-NO 18,0 C 24,6 C 0,9 km/h (0 Bft)
31.07.2017 21:00 21,4 C 79 % 1012,1 hPa 0,0 l/m 0,2 km/h (0 Bft) N-NO 17,6 C 21,4 C 1,1 km/h (0 Bft)
31.07.2017 22:00 19,4 C 85 % 1012,1 hPa 0,0 l/m 0,2 km/h (0 Bft) N-NO 16,9 C 19,4 C 1,2 km/h (1 Bft)
31.07.2017 23:00 17,8 C 89 % 1011,6 hPa 0,0 l/m 0,1 km/h (0 Bft) N-NO 16,0 C 17,8 C 0,7 km/h (0 Bft)
01.08.2017 00:00 17,0 C 91 % 1011,5 hPa 0,0 l/m 0,0 km/h (0 Bft) N-NO 15,4 C 17,0 C 0,1 km/h (0 Bft)
01.08.2017 01:00 16,1 C 92 % 1011,4 hPa 0,0 l/m 0,0 km/h (0 Bft) N-NO 14,9 C 16,1 C 0,3 km/h (0 Bft)
01.08.2017 02:00 15,4 C 93 % 1011,5 hPa 0,0 l/m 0,0 km/h (0 Bft) N-NO 14,4 C 15,4 C 0,0 km/h (0 Bft)
01.08.2017 03:00 15,1 C 95 % 1012,0 hPa 0,0 l/m 0,0 km/h (0 Bft) N-NO 14,3 C 15,1 C 0,1 km/h (0 Bft)
01.08.2017 04:00 15,2 C 95 % 1012,4 hPa 0,0 l/m 0,1 km/h (0 Bft) N-NO 14,4 C 15,2 C 1,3 km/h (1 Bft)
01.08.2017 05:00 15,2 C 95 % 1012,9 hPa 0,0 l/m 0,3 km/h (0 Bft) N-NO 14,4 C 15,2 C 1,7 km/h (1 Bft)
01.08.2017 06:00 15,1 C 96 % 1013,9 hPa 0,0 l/m 0,5 km/h (0 Bft) O-NO 14,4 C 15,1 C 2,4 km/h (1 Bft)
01.08.2017 07:00 17,5 C 92 % 1014,4 hPa 0,0 l/m 0,8 km/h (0 Bft) NW 16,2 C 17,5 C 3,2 km/h (1 Bft)
01.08.2017 08:00 20,2 C 84 % 1014,3 hPa 0,0 l/m 2,1 km/h (1 Bft) W 17,3 C 20,2 C 7,2 km/h (2 Bft)
01.08.2017 09:00 22,0 C 79 % 1014,6 hPa 0,0 l/m 2,6 km/h (1 Bft) NW 18,2 C 22,0 C 6,5 km/h (2 Bft)
01.08.2017 10:00 24,1 C 71 % 1014,3 hPa 0,0 l/m 2,7 km/h (1 Bft) W-NW 18,5 C 24,1 C 6,9 km/h (2 Bft)
01.08.2017 11:00 26,2 C 62 % 1013,6 hPa 0,0 l/m 3,5 km/h (1 Bft) S-SW 18,2 C 26,2 C 8,4 km/h (2 Bft)
01.08.2017 12:00 26,8 C 57 % 1013,3 hPa 0,0 l/m 2,2 km/h (1 Bft) S-SW 17,6 C 26,8 C 5,5 km/h (2 Bft)
01.08.2017 13:00 28,1 C 54 % 1013,0 hPa 0,0 l/m 2,3 km/h (1 Bft) W-SW 17,8 C 28,1 C 5,7 km/h (2 Bft)
01.08.2017 14:00 29,4 C 49 % 1013,1 hPa 0,0 l/m 2,8 km/h (1 Bft) O 17,4 C 29,4 C 7,8 km/h (2 Bft)
01.08.2017 15:00 29,7 C 45 % 1013,1 hPa 0,0 l/m 2,0 km/h (1 Bft) NO 16,5 C 29,7 C 5,7 km/h (2 Bft)
01.08.2017 16:00 27,8 C 58 % 1013,1 hPa 0,0 l/m 2,5 km/h (1 Bft) O-NO 18,6 C 27,8 C 6,8 km/h (2 Bft)
01.08.2017 17:00 25,1 C 73 % 1013,3 hPa 0,5 l/m 1,6 km/h (1 Bft) S 19,8 C 25,1 C 4,9 km/h (1 Bft)
01.08.2017 18:00 23,5 C 85 % 1013,7 hPa 0,0 l/m 1,3 km/h (1 Bft) NW 20,7 C 23,5 C 5,2 km/h (1 Bft)
01.08.2017 19:00 22,8 C 86 % 1014,3 hPa 2,5 l/m 1,6 km/h (1 Bft) W 20,4 C 22,8 C 3,8 km/h (1 Bft)
01.08.2017 20:00 19,4 C 90 % 1014,5 hPa 8,6 l/m 1,5 km/h (1 Bft) SO 17,7 C 19,4 C 3,3 km/h (1 Bft)
01.08.2017 21:00 18,4 C 95 % 1015,8 hPa 0,3 l/m 0,8 km/h (0 Bft) W-NW 17,6 C 18,4 C 2,0 km/h (1 Bft)
01.08.2017 22:00 18,2 C 96 % 1016,3 hPa 0,0 l/m 0,5 km/h (0 Bft) S 17,5 C 18,2 C 2,5 km/h (1 Bft)
01.08.2017 23:00 18,0 C 96 % 1016,5 hPa 1,0 l/m 0,4 km/h (0 Bft) S-SO 17,4 C 18,0 C 2,1 km/h (1 Bft)
02.08.2017 00:00 17,8 C 96 % 1016,6 hPa 0,5 l/m 0,5 km/h (0 Bft) S-SO 17,2 C 17,8 C 2,3 km/h (1 Bft)
02.08.2017 01:00 17,5 C 97 % 1017,2 hPa 1,8 l/m 1,2 km/h (1 Bft) O-NO 17,0 C 17,5 C 4,2 km/h (1 Bft)
02.08.2017 02:00 17,3 C 97 % 1017,0 hPa 2,8 l/m 1,1 km/h (0 Bft) O 16,9 C 17,3 C 3,9 km/h (1 Bft)
02.08.2017 03:00 17,2 C 97 % 1016,2 hPa 0,0 l/m 0,3 km/h (0 Bft) O 16,7 C 17,2 C 1,6 km/h (1 Bft)
02.08.2017 04:00 16,9 C 97 % 1016,5 hPa 0,0 l/m 0,2 km/h (0 Bft) O 16,4 C 16,9 C 1,5 km/h (1 Bft)
02.08.2017 05:00 16,3 C 97 % 1016,9 hPa 0,0 l/m 0,3 km/h (0 Bft) SO 15,7 C 16,3 C 1,5 km/h (1 Bft)
02.08.2017 06:00 16,3 C 97 % 1017,1 hPa 0,0 l/m 0,8 km/h (0 Bft) O 15,8 C 16,3 C 3,1 km/h (1 Bft)
02.08.2017 07:00 17,0 C 97 % 1017,4 hPa 0,0 l/m 2,1 km/h (1 Bft) O 16,4 C 17,0 C 5,3 km/h (1 Bft)
02.08.2017 08:00 18,4 C 95 % 1017,8 hPa 0,0 l/m 2,9 km/h (1 Bft) O 17,5 C 18,4 C 5,9 km/h (2 Bft)
02.08.2017 09:00 20,4 C 89 % 1017,9 hPa 0,0 l/m 3,4 km/h (1 Bft) O-NO 18,5 C 20,4 C 7,5 km/h (2 Bft)
02.08.2017 10:00 22,3 C 82 % 1018,1 hPa 0,0 l/m 3,0 km/h (1 Bft) O-NO 19,1 C 22,3 C 7,1 km/h (2 Bft)
02.08.2017 11:00 24,1 C 77 % 1018,1 hPa 0,3 l/m 4,2 km/h (1 Bft) O-NO 19,9 C 24,1 C 9,1 km/h (2 Bft)
02.08.2017 12:00 25,0 C 73 % 1017,8 hPa 0,0 l/m 4,9 km/h (1 Bft) O-NO 19,8 C 24,9 C 10,6 km/h (2 Bft)
02.08.2017 13:00 26,5 C 63 % 1017,6 hPa 0,0 l/m 6,1 km/h (2 Bft) NO 18,8 C 26,4 C 14,8 km/h (3 Bft)
02.08.2017 14:00 26,9 C 60 % 1017,3 hPa 0,0 l/m 6,0 km/h (2 Bft) O 18,4 C 26,9 C 16,0 km/h (3 Bft)
02.08.2017 15:00 27,6 C 55 % 1017,1 hPa 0,0 l/m 5,3 km/h (1 Bft) O 17,6 C 27,6 C 14,6 km/h (3 Bft)
02.08.2017 16:00 27,7 C 55 % 1016,7 hPa 0,0 l/m 4,4 km/h (1 Bft) O-NO 17,7 C 27,7 C 11,7 km/h (2 Bft)
02.08.2017 17:00 27,7 C 55 % 1016,1 hPa 0,0 l/m 3,1 km/h (1 Bft) O-NO 17,9 C 27,7 C 7,5 km/h (2 Bft)
02.08.2017 18:00 27,2 C 56 % 1015,7 hPa 0,0 l/m 2,3 km/h (1 Bft) O-NO 17,6 C 27,2 C 6,4 km/h (2 Bft)
02.08.2017 19:00 26,2 C 65 % 1015,2 hPa 0,0 l/m 0,2 km/h (0 Bft) O-SO 19,1 C 26,2 C 1,2 km/h (1 Bft)
02.08.2017 20:00 23,9 C 76 % 1015,1 hPa 0,0 l/m 0,0 km/h (0 Bft) O-SO 19,4 C 23,9 C 0,5 km/h (0 Bft)
02.08.2017 21:00 20,8 C 85 % 1015,5 hPa 0,0 l/m 0,1 km/h (0 Bft) O-SO 18,3 C 20,8 C 0,8 km/h (0 Bft)
02.08.2017 22:00 18,7 C 90 % 1015,7 hPa 0,0 l/m 0,0 km/h (0 Bft) O-SO 17,1 C 18,7 C 0,1 km/h (0 Bft)
02.08.2017 23:00 17,4 C 93 % 1015,7 hPa 0,0 l/m 0,0 km/h (0 Bft) O-SO 16,2 C 17,4 C 0,0 km/h (0 Bft)
03.08.2017 00:00 17,0 C 94 % 1015,5 hPa 0,0 l/m 0,0 km/h (0 Bft) O-SO 15,9 C 17,0 C 0,1 km/h (0 Bft)
03.08.2017 01:00 16,5 C 95 % 1014,9 hPa 0,0 l/m 0,0 km/h (0 Bft) O-SO 15,6 C 16,5 C 0,0 km/h (0 Bft)
03.08.2017 02:00 16,3 C 96 % 1014,5 hPa 0,0 l/m 0,0 km/h (0 Bft) O-SO 15,6 C 16,3 C 0,0 km/h (0 Bft)
03.08.2017 03:00 16,5 C 96 % 1013,8 hPa 0,0 l/m 0,0 km/h (0 Bft) O-SO 15,8 C 16,5 C 0,0 km/h (0 Bft)
03.08.2017 04:00 16,6 C 96 % 1013,1 hPa 0,0 l/m 0,2 km/h (0 Bft) O-SO 16,0 C 16,6 C 1,5 km/h (1 Bft)
03.08.2017 05:00 17,0 C 96 % 1012,9 hPa 0,0 l/m 0,2 km/h (0 Bft) O-SO 16,4 C 17,0 C 1,5 km/h (1 Bft)
03.08.2017 06:00 17,4 C 96 % 1012,8 hPa 0,0 l/m 0,0 km/h (0 Bft) NO 16,8 C 17,4 C 0,1 km/h (0 Bft)
03.08.2017 07:00 18,1 C 97 % 1013,2 hPa 0,5 l/m 0,1 km/h (0 Bft) NO 17,5 C 18,1 C 0,9 km/h (0 Bft)
03.08.2017 08:00 19,2 C 97 % 1013,6 hPa 0,5 l/m 0,2 km/h (0 Bft) NO 18,6 C 19,2 C 1,5 km/h (1 Bft)
03.08.2017 09:00 20,9 C 94 % 1013,9 hPa 0,0 l/m 1,3 km/h (1 Bft) O-NO 19,9 C 20,9 C 3,7 km/h (1 Bft)
03.08.2017 10:00 22,7 C 89 % 1013,7 hPa 0,3 l/m 1,0 km/h (0 Bft) NO 20,8 C 22,7 C 3,9 km/h (1 Bft)
03.08.2017 11:00 25,1 C 78 % 1013,5 hPa 0,0 l/m 4,5 km/h (1 Bft) O-NO 21,0 C 25,2 C 9,8 km/h (2 Bft)
03.08.2017 12:00 25,5 C 76 % 1013,4 hPa 0,0 l/m 3,9 km/h (1 Bft) O-NO 21,0 C 25,5 C 8,6 km/h (2 Bft)
03.08.2017 13:00 27,5 C 67 % 1012,9 hPa 0,3 l/m 5,3 km/h (1 Bft) O-NO 20,6 C 27,4 C 13,8 km/h (3 Bft)
03.08.2017 14:00 21,7 C 89 % 1013,2 hPa 18,0 l/m 4,5 km/h (1 Bft) O-NO 19,8 C 21,5 C 13,4 km/h (3 Bft)
03.08.2017 15:00 23,3 C 90 % 1012,5 hPa 0,0 l/m 2,8 km/h (1 Bft) O 21,6 C 23,3 C 6,5 km/h (2 Bft)
03.08.2017 16:00 22,3 C 92 % 1012,5 hPa 10,7 l/m 1,7 km/h (1 Bft) S 20,8 C 22,3 C 6,4 km/h (2 Bft)
03.08.2017 17:00 23,4 C 95 % 1012,3 hPa 0,0 l/m 0,7 km/h (0 Bft) SW 22,5 C 23,4 C 2,7 km/h (1 Bft)
03.08.2017 18:00 24,5 C 89 % 1012,1 hPa 0,0 l/m 1,2 km/h (1 Bft) O 22,4 C 24,5 C 3,9 km/h (1 Bft)
03.08.2017 19:00 23,7 C 88 % 1012,3 hPa 0,3 l/m 0,9 km/h (0 Bft) O-SO 21,6 C 23,7 C 3,1 km/h (1 Bft)
03.08.2017 20:00 22,8 C 91 % 1012,5 hPa 0,0 l/m 0,0 km/h (0 Bft) O-SO 21,3 C 22,8 C 0,5 km/h (0 Bft)
03.08.2017 21:00 21,5 C 94 % 1012,7 hPa 0,0 l/m 0,1 km/h (0 Bft) O-SO 20,4 C 21,5 C 1,1 km/h (0 Bft)
03.08.2017 22:00 20,4 C 95 % 1013,0 hPa 0,0 l/m 0,2 km/h (0 Bft) O-SO 19,6 C 20,4 C 1,6 km/h (1 Bft)
03.08.2017 23:00 18,9 C 94 % 1013,2 hPa 0,0 l/m 0,2 km/h (0 Bft) S-SO 17,9 C 18,9 C 1,2 km/h (1 Bft)
04.08.2017 00:00 17,9 C 94 % 1013,3 hPa 0,0 l/m 0,0 km/h (0 Bft) S-SO 17,0 C 17,9 C 0,1 km/h (0 Bft)
04.08.2017 01:00 16,9 C 96 % 1013,3 hPa 0,0 l/m 0,0 km/h (0 Bft) S-SO 16,3 C 16,9 C 0,0 km/h (0 Bft)
04.08.2017 02:00 16,2 C 96 % 1013,1 hPa 0,0 l/m 0,0 km/h (0 Bft) S-SO 15,6 C 16,2 C 0,4 km/h (0 Bft)
04.08.2017 03:00 16,0 C 97 % 1013,1 hPa 0,0 l/m 0,0 km/h (0 Bft) S-SO 15,5 C 16,0 C 0,0 km/h (0 Bft)
04.08.2017 04:00 15,8 C 97 % 1012,9 hPa 0,0 l/m 0,0 km/h (0 Bft) S-SO 15,3 C 15,8 C 0,0 km/h (0 Bft)
04.08.2017 05:00 15,6 C 97 % 1012,8 hPa 0,0 l/m 0,0 km/h (0 Bft) S-SO 15,2 C 15,6 C 0,3 km/h (0 Bft)
04.08.2017 06:00 16,9 C 97 % 1012,8 hPa 0,0 l/m 1,8 km/h (1 Bft) O 16,3 C 16,9 C 6,0 km/h (2 Bft)
04.08.2017 07:00 17,8 C 92 % 1013,0 hPa 0,0 l/m 2,2 km/h (1 Bft) O 16,5 C 17,8 C 6,5 km/h (2 Bft)
04.08.2017 08:00 18,7 C 84 % 1013,3 hPa 0,0 l/m 3,9 km/h (1 Bft) O 15,9 C 18,7 C 11,7 km/h (2 Bft)
04.08.2017 09:00 20,5 C 74 % 1013,5 hPa 0,0 l/m 5,7 km/h (2 Bft) O-NO 15,7 C 20,5 C 15,3 km/h (3 Bft)
04.08.2017 10:00 21,5 C 71 % 1013,5 hPa 0,0 l/m 5,9 km/h (2 Bft) O-NO 16,1 C 21,4 C 15,3 km/h (3 Bft)
04.08.2017 11:00 22,0 C 70 % 1013,4 hPa 0,0 l/m 5,7 km/h (2 Bft) O-NO 16,3 C 21,8 C 11,8 km/h (2 Bft)
04.08.2017 12:00 22,6 C 68 % 1013,5 hPa 0,0 l/m 6,7 km/h (2 Bft) NO 16,4 C 22,4 C 14,2 km/h (3 Bft)
04.08.2017 13:00 22,6 C 66 % 1013,5 hPa 0,0 l/m 7,3 km/h (2 Bft) O 15,8 C 22,2 C 16,5 km/h (3 Bft)
04.08.2017 14:00 24,3 C 61 % 1013,5 hPa 0,0 l/m 7,2 km/h (2 Bft) O-NO 16,3 C 24,0 C 17,0 km/h (3 Bft)
04.08.2017 15:00 23,7 C 61 % 1013,5 hPa 0,0 l/m 5,6 km/h (2 Bft) NO 15,6 C 23,6 C 15,3 km/h (3 Bft)
04.08.2017 16:00 23,5 C 64 % 1013,6 hPa 0,0 l/m 5,5 km/h (2 Bft) O 16,2 C 23,4 C 15,3 km/h (3 Bft)
04.08.2017 17:00 22,1 C 64 % 1013,8 hPa 0,0 l/m 6,7 km/h (2 Bft) O-NO 14,9 C 22,0 C 16,6 km/h (3 Bft)
04.08.2017 18:00 21,8 C 61 % 1013,9 hPa 0,0 l/m 6,4 km/h (2 Bft) O-NO 13,8 C 21,5 C 16,2 km/h (3 Bft)
04.08.2017 19:00 20,4 C 63 % 1014,1 hPa 0,0 l/m 1,7 km/h (1 Bft) NO 13,2 C 20,4 C 5,4 km/h (1 Bft)
04.08.2017 20:00 19,3 C 69 % 1014,3 hPa 0,0 l/m 0,3 km/h (0 Bft) S-SO 13,4 C 19,3 C 2,4 km/h (1 Bft)
04.08.2017 21:00 17,2 C 79 % 1014,8 hPa 0,0 l/m 0,0 km/h (0 Bft) S-SO 13,6 C 17,2 C 0,3 km/h (0 Bft)
04.08.2017 22:00 14,9 C 88 % 1015,5 hPa 0,0 l/m 0,1 km/h (0 Bft) S-SO 12,8 C 14,9 C 1,2 km/h (1 Bft)
04.08.2017 23:00 13,4 C 92 % 1015,7 hPa 0,0 l/m 0,0 km/h (0 Bft) S-SO 12,0 C 13,4 C 0,5 km/h (0 Bft)
05.08.2017 00:00 12,9 C 93 % 1015,9 hPa 0,0 l/m 0,0 km/h (0 Bft) S-SO 11,8 C 12,9 C 0,2 km/h (0 Bft)
05.08.2017 01:00 12,4 C 94 % 1015,8 hPa 0,0 l/m 0,0 km/h (0 Bft) S-SO 11,5 C 12,4 C 0,0 km/h (0 Bft)
05.08.2017 02:00 11,9 C 95 % 1015,6 hPa 0,0 l/m 0,0 km/h (0 Bft) S-SO 11,1 C 11,9 C 0,0 km/h (0 Bft)
05.08.2017 03:00 11,4 C 95 % 1015,4 hPa 0,0 l/m 0,0 km/h (0 Bft) S-SO 10,6 C 11,4 C 0,0 km/h (0 Bft)
05.08.2017 04:00 11,2 C 96 % 1015,3 hPa 0,0 l/m 0,0 km/h (0 Bft) S-SO 10,6 C 11,2 C 0,1 km/h (0 Bft)
05.08.2017 05:00 11,4 C 96 % 1015,0 hPa 0,0 l/m 0,0 km/h (0 Bft) S-SO 10,9 C 11,4 C 0,0 km/h (0 Bft)
05.08.2017 06:00 11,9 C 96 % 1014,8 hPa 0,0 l/m 0,0 km/h (0 Bft) S-SO 11,3 C 11,9 C 0,1 km/h (0 Bft)
05.08.2017 07:00 12,7 C 96 % 1014,8 hPa 0,0 l/m 0,0 km/h (0 Bft) S-SO 12,1 C 12,7 C 0,3 km/h (0 Bft)
05.08.2017 08:00 15,7 C 91 % 1014,6 hPa 0,0 l/m 0,1 km/h (0 Bft) S-SO 14,3 C 15,7 C 1,3 km/h (1 Bft)
05.08.2017 09:00 20,4 C 74 % 1014,5 hPa 0,0 l/m 2,6 km/h (1 Bft) O-NO 15,4 C 20,4 C 6,0 km/h (2 Bft)
05.08.2017 10:00 21,5 C 69 % 1014,5 hPa 0,0 l/m 5,5 km/h (2 Bft) O-NO 15,5 C 21,4 C 13,0 km/h (3 Bft)
05.08.2017 11:00 23,2 C 67 % 1014,5 hPa 0,0 l/m 7,4 km/h (2 Bft) NO 16,6 C 22,8 C 16,6 km/h (3 Bft)
05.08.2017 12:00 24,3 C 65 % 1014,3 hPa 0,0 l/m 7,0 km/h (2 Bft) NO 17,3 C 24,1 C 14,9 km/h (3 Bft)
05.08.2017 13:00 25,2 C 62 % 1014,2 hPa 0,0 l/m 8,5 km/h (2 Bft) NO 17,3 C 24,7 C 20,4 km/h (4 Bft)
05.08.2017 14:00 25,2 C 62 % 1013,9 hPa 0,0 l/m 8,8 km/h (2 Bft) O-NO 17,4 C 24,6 C 21,9 km/h (4 Bft)
05.08.2017 15:00 25,2 C 63 % 1013,9 hPa 0,0 l/m 9,4 km/h (2 Bft) NO 17,7 C 24,5 C 24,0 km/h (4 Bft)
05.08.2017 16:00 24,7 C 67 % 1014,1 hPa 0,0 l/m 7,0 km/h (2 Bft) O-NO 18,1 C 24,4 C 17,8 km/h (3 Bft)
05.08.2017 17:00 23,8 C 70 % 1014,2 hPa 0,0 l/m 4,8 km/h (1 Bft) O-NO 17,9 C 23,8 C 12,9 km/h (3 Bft)
05.08.2017 18:00 21,8 C 74 % 1014,8 hPa 0,0 l/m 4,0 km/h (1 Bft) O-NO 16,8 C 21,8 C 10,6 km/h (2 Bft)
05.08.2017 19:00 20,1 C 76 % 1015,4 hPa 0,0 l/m 3,7 km/h (1 Bft) O 15,8 C 20,1 C 10,2 km/h (2 Bft)
05.08.2017 20:00 18,3 C 73 % 1016,6 hPa 0,0 l/m 3,3 km/h (1 Bft) O-NO 13,3 C 18,3 C 10,2 km/h (2 Bft)
05.08.2017 21:00 17,0 C 70 % 1017,5 hPa 0,0 l/m 1,9 km/h (1 Bft) O-NO 11,5 C 17,0 C 7,2 km/h (2 Bft)
05.08.2017 22:00 15,6 C 72 % 1018,0 hPa 0,0 l/m 0,4 km/h (0 Bft) O-NO 10,7 C 15,6 C 2,4 km/h (1 Bft)
05.08.2017 23:00 13,8 C 83 % 1018,6 hPa 0,0 l/m 0,0 km/h (0 Bft) O-NO 10,9 C 13,8 C 0,2 km/h (0 Bft)
06.08.2017 00:00 13,2 C 87 % 1018,9 hPa 0,0 l/m 0,0 km/h (0 Bft) O-NO 11,0 C 13,2 C 0,0 km/h (0 Bft)
06.08.2017 01:00 13,3 C 89 % 1019,0 hPa 0,0 l/m 0,1 km/h (0 Bft) O-NO 11,5 C 13,3 C 0,4 km/h (0 Bft)
06.08.2017 02:00 13,3 C 89 % 1018,9 hPa 0,0 l/m 0,0 km/h (0 Bft) O-NO 11,6 C 13,3 C 0,4 km/h (0 Bft)
06.08.2017 03:00 13,3 C 90 % 1019,2 hPa 0,0 l/m 0,0 km/h (0 Bft) O-NO 11,8 C 13,3 C 0,1 km/h (0 Bft)
06.08.2017 04:00 13,2 C 91 % 1019,2 hPa 0,0 l/m 0,0 km/h (0 Bft) O-NO 11,8 C 13,2 C 0,3 km/h (0 Bft)
06.08.2017 05:00 13,0 C 92 % 1019,4 hPa 0,0 l/m 0,0 km/h (0 Bft) O-NO 11,8 C 13,0 C 0,1 km/h (0 Bft)
06.08.2017 06:00 12,5 C 93 % 1019,8 hPa 0,0 l/m 0,1 km/h (0 Bft) O-NO 11,4 C 12,5 C 0,7 km/h (0 Bft)
06.08.2017 07:00 12,9 C 93 % 1020,0 hPa 0,0 l/m 0,1 km/h (0 Bft) O-NO 11,8 C 12,9 C 0,5 km/h (0 Bft)
06.08.2017 08:00 14,0 C 88 % 1020,4 hPa 0,0 l/m 0,4 km/h (0 Bft) O-NO 12,1 C 14,0 C 2,4 km/h (1 Bft)
06.08.2017 09:00 15,9 C 79 % 1020,8 hPa 0,0 l/m 1,1 km/h (1 Bft) S-SO 12,1 C 15,9 C 4,8 km/h (1 Bft)
06.08.2017 10:00 17,4 C 73 % 1020,7 hPa 0,0 l/m 2,4 km/h (1 Bft) NW 12,5 C 17,4 C 6,7 km/h (2 Bft)
06.08.2017 11:00 18,5 C 67 % 1020,8 hPa 0,0 l/m 2,5 km/h (1 Bft) W-NW 12,2 C 18,5 C 5,6 km/h (2 Bft)
06.08.2017 12:00 18,8 C 64 % 1020,8 hPa 0,0 l/m 1,9 km/h (1 Bft) S-SW 11,8 C 18,8 C 4,4 km/h (1 Bft)
06.08.2017 13:00 20,0 C 59 % 1020,5 hPa 0,0 l/m 2,4 km/h (1 Bft) O-NO 11,7 C 20,0 C 6,4 km/h (2 Bft)
06.08.2017 14:00 20,7 C 58 % 1020,3 hPa 0,0 l/m 2,0 km/h (1 Bft) S 12,2 C 20,7 C 5,5 km/h (2 Bft)
06.08.2017 15:00 20,6 C 55 % 1020,3 hPa 0,0 l/m 1,9 km/h (1 Bft) W-NW 11,4 C 20,6 C 5,3 km/h (1 Bft)
06.08.2017 16:00 21,1 C 56 % 1020,4 hPa 0,0 l/m 2,8 km/h (1 Bft) W-NW 11,9 C 21,1 C 8,0 km/h (2 Bft)
06.08.2017 17:00 22,5 C 50 % 1020,4 hPa 0,0 l/m 1,6 km/h (1 Bft) S-SW 11,5 C 22,5 C 4,4 km/h (1 Bft)
06.08.2017 18:00 21,8 C 50 % 1020,5 hPa 0,0 l/m 1,1 km/h (1 Bft) S-SO 11,0 C 21,8 C 4,1 km/h (1 Bft)
06.08.2017 19:00 19,6 C 59 % 1020,6 hPa 0,0 l/m 1,3 km/h (1 Bft) S-SW 11,4 C 19,6 C 4,5 km/h (1 Bft)
06.08.2017 20:00 17,2 C 72 % 1020,8 hPa 0,0 l/m 0,0 km/h (0 Bft) S-SW 12,0 C 17,2 C 0,3 km/h (0 Bft)
06.08.2017 21:00 15,0 C 82 % 1021,2 hPa 0,0 l/m 0,0 km/h (0 Bft) S-SW 11,9 C 15,0 C 0,0 km/h (0 Bft)
06.08.2017 22:00 13,1 C 86 % 1021,3 hPa 0,0 l/m 0,0 km/h (0 Bft) S-SW 10,9 C 13,1 C 0,0 km/h (0 Bft)
06.08.2017 23:00 11,6 C 91 % 1021,2 hPa 0,0 l/m 0,0 km/h (0 Bft) S-SW 10,1 C 11,6 C 0,0 km/h (0 Bft)
Min-Datum _ 05.08.17 01.08.17 01.08.17 - 06.08.17 - 06.08.17 05.08.17 06.08.17
_ Min-Zeit 04:25 15:20 02:05 - 23:00 - 23:55 04:25 23:00
Minimum _ 11,1 C 40 % 1011,3 hPa - 0,0 km/h (0 Bft) - 9,9 C 11,1 C 0,0 km/h (0 Bft)
Max-Datum _ 01.08.17 04.08.17 06.08.17 03.08.17 05.08.17 - 03.08.17 01.08.17 03.08.17
_ Max-Zeit 15:15 06:00 22:00 14:05 11:52 - 17:55 15:15 14:10
Maximum _ 30,4 C 98 % 1021,4 hPa 18,0 l/m 12,9 km/h
NO (3 Bft)
- 23,2 C 30,4 C 33,8 km/h
O-NO (5 Bft)
Durchschnitt _ 19,8 C 80 % 1015,1 hPa #48,8 l/m 1,8 km/h (1 Bft) O-NO 15,8 C 19,7 C 5,1 km/h (1 Bft)